Big Island, VA (24526)

9:44 PM EST on November 23, 2014 (GMT -0500)
Hensley Hollow Rd. | Change Station
CLOSE
Current Station
Personal Weather Station
Location: Big Island, VA
Elevation: 971 ft
Nearby Weather Stations

Elev 971 ft 37.54 °N, 79.40 °W | Updated 2 seconds ago

Rain
Rain
45.1 °F
Feels Like 45 °F
N
0.0
Wind Variable Wind from South
Gusts 0.0 mph

Today
High -- | Low -- °F
--% Chance of Precip.
Yesterday
High -- | Low -- °F
Precip. -- in
7:05 AM 5:02 PM
Waxing Crescent, 3% visible
Pressure 29.84 in
Visibility 2.0 miles
Clouds Overcast 300 ft
Windchill 45 °F
Dew Point 44 °F
Humidity 97%
Rainfall 0.78 in
Snow Depth Not available.
UV 0 out of 12
Pollen .10 out of 12
Air Quality Not available.
Flu Activity Not available.
SPECI KLYH 240231Z 02008KT 2SM RA BR OVC003 08/08 A2984 RMK AO2 P0021 T00780078 $

More Conditions Fewer Conditions

Pressure 29.84 in
Visibility 2.0 miles
Clouds Overcast 300 ft
Windchill 45 °F
Dew Point 44 °F
Humidity 97%
Rainfall 0.78 in
Snow Depth Not available.
UV 0 out of 12
Pollen .10 out of 12
Air Quality Not available.
Flu Activity Not available.
SPECI KLYH 240231Z 02008KT 2SM RA BR OVC003 08/08 A2984 RMK AO2 P0021 T00780078 $

More Conditions Fewer Conditions

10-Day Weather Forecast

Almanac

Astronomy

Nov. 23, 2014 Rise Set
Actual Time
Civil Twilight
Nautical Twilight
Astronomical Twilight
Moon
Length of Visible Light
Length of Day
Tomorrow will be .
, % of the Moon is Illuminated

Today's Extremes

State Highs State Lows

Community

WunderPhotos

Upload Photos

1,773,257 photos uploaded!

WunderBlogs® & News

Nearby

Air Quality

  Air Quality AQ Index Pollutant
Not available.

Snow Depth

Station Depth Elevation

Earthquake Activity

City Distance Mag. Time & Date
Minimum magnitude displayed is 2.5.

Coastal Water Temperatures

Place Temperature

Nearby Weather Stations